Time;durP1;ratioP1;P1;durP2;ratioP2;P2;SDS_P1;SDS_P2;PMS_P1;PMS_P2;Temp;Humidity;BMP_temperature;BMP_pressure;BME280_temperature;BME280_humidity;BME280_pressure;Samples;Min_cycle;Max_cycle;Signal;HPM_P1;HPM_P2
2020/12/09 00:02:40;;;;;;;75.43;41.47;;;;;;;1.91;100.00;99441.25;5138500;27;20205;-36
2020/12/09 00:05:26;;;;;;;79.10;43.17;;;;;;;1.89;100.00;99444.63;5138136;27;20198;-36
2020/12/09 00:08:12;;;;;;;73.33;44.23;;;;;;;1.94;100.00;99445.56;5138299;27;20653;-36
2020/12/09 00:10:58;;;;;;;75.23;43.30;;;;;;;1.98;100.00;99442.22;5138631;27;20443;-36
2020/12/09 00:13:45;;;;;;;83.80;45.73;;;;;;;1.96;100.00;99439.63;5138707;27;20194;-35
2020/12/09 00:16:31;;;;;;;76.47;44.33;;;;;;;1.91;100.00;99436.16;5138110;27;20186;-37
2020/12/09 00:19:17;;;;;;;77.33;47.40;;;;;;;1.81;100.00;99430.91;5138667;28;20446;-39
2020/12/09 00:22:03;;;;;;;81.43;48.07;;;;;;;1.89;100.00;99430.19;5138267;28;20440;-35
2020/12/09 00:24:50;;;;;;;88.10;50.43;;;;;;;1.94;100.00;99436.22;5137975;28;20614;-34
2020/12/09 00:27:36;;;;;;;74.80;46.83;;;;;;;1.89;100.00;99430.19;5137780;28;20220;-35
2020/12/09 00:30:22;;;;;;;81.50;49.20;;;;;;;1.29;100.00;99417.47;5138174;28;20734;-33
2020/12/09 00:33:10;;;;;;;87.03;48.37;;;;;;;1.63;100.00;99422.19;5138087;28;20193;-33
2020/12/09 00:35:57;;;;;;;87.37;47.37;;;;;;;1.58;100.00;99428.09;5138407;28;20636;-34
2020/12/09 00:38:43;;;;;;;80.57;46.03;;;;;;;1.88;100.00;99433.56;5138762;28;20197;-36
2020/12/09 00:41:30;;;;;;;79.53;43.43;;;;;;;1.90;100.00;99439.56;5140379;27;20243;-34
2020/12/09 00:44:15;;;;;;;72.40;40.27;;;;;;;1.71;100.00;99435.06;5142303;27;20201;-34
2020/12/09 00:47:01;;;;;;;76.43;42.97;;;;;;;1.84;100.00;99433.50;5142025;27;20201;-33
2020/12/09 00:50:27;;;;;;;74.47;41.20;;;;;;;1.83;100.00;99425.00;5142252;27;20193;-33
2020/12/09 00:53:04;;;;;;;63.43;37.83;;;;;;;1.67;100.00;99426.50;5141868;27;20551;-35
2020/12/09 00:55:49;;;;;;;72.17;39.00;;;;;;;1.71;100.00;99428.25;5142131;27;20261;-37
2020/12/09 00:58:37;;;;;;;71.80;38.57;;;;;;;1.73;100.00;99429.16;5142452;27;20607;-36
2020/12/09 01:01:24;;;;;;;73.63;39.37;;;;;;;1.81;100.00;99433.47;5142000;27;20442;-38
2020/12/09 01:04:09;;;;;;;74.50;38.50;;;;;;;1.78;100.00;99434.31;5142099;27;20712;-36
2020/12/09 01:06:55;;;;;;;69.00;37.80;;;;;;;1.77;100.00;99427.50;5141679;27;20599;-38
2020/12/09 01:09:41;;;;;;;64.50;36.93;;;;;;;1.69;100.00;99429.94;5142168;27;20439;-33
2020/12/09 01:12:27;;;;;;;59.73;35.63;;;;;;;1.48;100.00;99434.75;5141695;27;20315;-35
2020/12/09 01:15:13;;;;;;;63.07;37.67;;;;;;;1.22;100.00;99430.94;5141484;27;20217;-35
2020/12/09 01:17:59;;;;;;;65.03;36.10;;;;;;;1.38;100.00;99441.41;5141337;27;20953;-34
2020/12/09 01:20:45;;;;;;;65.13;36.63;;;;;;;1.71;100.00;99448.66;5141861;27;20205;-33
2020/12/09 01:23:30;;;;;;;63.00;34.57;;;;;;;1.62;100.00;99443.41;5141582;27;20717;-34
2020/12/09 01:26:16;;;;;;;61.07;35.33;;;;;;;1.74;100.00;99435.09;5141616;27;20435;-35
2020/12/09 01:29:01;;;;;;;70.13;37.07;;;;;;;1.61;100.00;99439.16;5141527;27;20447;-34
2020/12/09 01:31:49;;;;;;;62.33;35.33;;;;;;;1.65;100.00;99446.03;5141241;27;21025;-36
2020/12/09 01:34:36;;;;;;;64.30;35.70;;;;;;;1.18;100.00;99458.09;5141188;27;20217;-34
2020/12/09 01:37:21;;;;;;;64.43;35.07;;;;;;;1.05;100.00;99461.25;5141281;27;20193;-35
2020/12/09 01:40:07;;;;;;;62.27;36.17;;;;;;;1.37;100.00;99461.78;5141027;27;20335;-30
2020/12/09 01:42:53;;;;;;;64.53;34.33;;;;;;;1.64;100.00;99464.69;5141067;27;20440;-32
2020/12/09 01:45:39;;;;;;;66.40;33.30;;;;;;;1.71;100.00;99460.53;5140901;27;20941;-33
2020/12/09 01:48:25;;;;;;;52.57;31.33;;;;;;;1.08;100.00;99460.44;5140828;27;20505;-34
2020/12/09 01:51:13;;;;;;;61.43;34.40;;;;;;;1.45;100.00;99465.25;5141268;27;20443;-34
2020/12/09 01:54:00;;;;;;;60.20;33.03;;;;;;;1.64;100.00;99464.69;5140079;27;20447;-33
2020/12/09 01:57:09;;;;;;;63.90;35.47;;;;;;;1.76;100.00;99465.72;5140814;27;20190;-38
2020/12/09 01:59:55;;;;;;;60.00;34.13;;;;;;;1.52;100.00;99471.31;5140554;27;20197;-31
2020/12/09 02:02:40;;;;;;;62.47;34.20;;;;;;;1.52;100.00;99474.72;5140597;27;20477;-37
2020/12/09 02:05:27;;;;;;;67.93;35.53;;;;;;;1.24;100.00;99480.22;5140165;27;20858;-36
2020/12/09 02:08:14;;;;;;;62.33;35.07;;;;;;;1.59;100.00;99474.00;5140350;27;20498;-37
2020/12/09 02:11:00;;;;;;;59.50;34.17;;;;;;;1.71;100.00;99475.84;5139947;27;20864;-36
2020/12/09 02:13:47;;;;;;;61.90;34.27;;;;;;;1.83;100.00;99482.78;5140103;27;20190;-34
2020/12/09 02:16:34;;;;;;;71.87;37.33;;;;;;;1.73;100.00;99477.56;5139917;27;20479;-35
2020/12/09 02:19:20;;;;;;;69.37;36.83;;;;;;;1.54;100.00;99479.84;5140076;27;20596;-35
2020/12/09 02:22:10;;;;;;;62.37;34.97;;;;;;;1.74;100.00;99470.78;5140169;27;20577;-37
2020/12/09 02:24:56;;;;;;;64.20;36.00;;;;;;;1.65;100.00;99474.06;5140087;27;20473;-36
2020/12/09 02:27:42;;;;;;;73.00;36.97;;;;;;;1.81;100.00;99476.81;5139483;27;20564;-34
2020/12/09 02:30:27;;;;;;;66.43;36.57;;;;;;;1.85;100.00;99471.78;5139894;27;20442;-32
2020/12/09 02:33:13;;;;;;;73.50;40.23;;;;;;;1.71;100.00;99475.84;5139471;27;20884;-36
2020/12/09 02:35:59;;;;;;;74.47;38.90;;;;;;;1.59;100.00;99481.63;5139963;27;20478;-36
2020/12/09 02:38:46;;;;;;;83.40;41.87;;;;;;;1.72;100.00;99482.66;5140232;27;20577;-32
2020/12/09 02:41:32;;;;;;;76.03;38.33;;;;;;;1.89;100.00;99480.31;5139802;27;20549;-36
2020/12/09 02:44:20;;;;;;;82.60;40.80;;;;;;;1.77;100.00;99480.19;5139822;27;20450;-35
2020/12/09 02:47:05;;;;;;;71.33;38.70;;;;;;;1.86;100.00;99473.50;5139657;27;20987;-33
2020/12/09 02:49:51;;;;;;;68.80;38.00;;;;;;;1.68;100.00;99484.28;5139548;27;20194;-33
2020/12/09 02:52:37;;;;;;;68.77;36.53;;;;;;;1.89;100.00;99480.31;5139697;27;20284;-34
2020/12/09 02:55:24;;;;;;;69.83;38.37;;;;;;;2.01;100.00;99481.31;5139182;27;20471;-34
2020/12/09 02:58:09;;;;;;;70.00;36.70;;;;;;;2.05;100.00;99482.22;5139018;27;20198;-33
2020/12/09 03:00:56;;;;;;;67.03;36.13;;;;;;;2.32;100.00;99485.13;5139316;27;20676;-37
2020/12/09 03:03:46;;;;;;;73.37;36.10;;;;;;;2.26;100.00;99487.59;5139448;27;20255;-34
2020/12/09 03:06:34;;;;;;;65.93;34.50;;;;;;;1.79;100.00;99486.16;5139799;27;20321;-38
2020/12/09 03:09:20;;;;;;;69.17;36.60;;;;;;;2.18;100.00;99478.16;5139435;27;20197;-35
2020/12/09 03:12:06;;;;;;;70.60;36.37;;;;;;;2.40;100.00;99477.53;5139333;27;20291;-34
2020/12/09 03:14:52;;;;;;;66.40;36.07;;;;;;;2.40;100.00;99480.94;5139128;27;20275;-32
2020/12/09 03:17:37;;;;;;;67.73;36.37;;;;;;;1.92;100.00;99485.47;5139271;27;20595;-33
2020/12/09 03:20:23;;;;;;;67.47;35.97;;;;;;;1.80;100.00;99490.41;5139461;27;20198;-36
2020/12/09 03:23:08;;;;;;;80.23;39.80;;;;;;;1.88;100.00;99479.47;5139551;27;20210;-31
2020/12/09 03:25:54;;;;;;;82.47;42.03;;;;;;;2.07;100.00;99483.09;5139280;27;20197;-33
2020/12/09 03:28:41;;;;;;;89.90;42.87;;;;;;;2.07;100.00;99476.31;5138633;27;20498;-33
2020/12/09 03:31:27;;;;;;;298.73;68.47;;;;;;;2.13;100.00;99485.75;5138942;27;20486;-32
2020/12/09 03:34:13;;;;;;;122.17;44.37;;;;;;;2.28;100.00;99495.28;5139265;27;20282;-34
2020/12/09 03:36:58;;;;;;;116.83;47.60;;;;;;;2.56;100.00;99491.34;5138852;27;20201;-31
2020/12/09 03:39:44;;;;;;;97.93;43.87;;;;;;;2.73;100.00;99505.13;5138505;27;20213;-31
2020/12/09 03:42:30;;;;;;;96.30;42.47;;;;;;;2.81;100.00;99508.59;5138753;27;20193;-32
2020/12/09 03:45:17;;;;;;;105.53;43.87;;;;;;;2.81;100.00;99500.94;5138516;27;20197;-32
2020/12/09 03:48:02;;;;;;;151.03;50.80;;;;;;;2.75;100.00;99509.41;5138404;27;20201;-33
2020/12/09 03:50:48;;;;;;;194.53;48.50;;;;;;;2.65;100.00;99507.59;5138476;27;20189;-33
2020/12/09 03:53:34;;;;;;;157.20;46.70;;;;;;;2.59;100.00;99514.34;5138721;27;20197;-34
2020/12/09 03:56:20;;;;;;;132.80;42.90;;;;;;;2.43;100.00;99516.72;5138151;27;20225;-32
2020/12/09 03:59:06;;;;;;;120.77;40.73;;;;;;;2.26;100.00;99522.44;5138339;27;20198;-34
2020/12/09 04:01:53;;;;;;;161.60;44.57;;;;;;;2.51;100.00;99528.72;5137885;27;20611;-30
2020/12/09 04:04:38;;;;;;;178.83;49.20;;;;;;;2.65;100.00;99537.38;5137948;27;20204;-32
2020/12/09 04:07:24;;;;;;;104.10;39.77;;;;;;;2.54;100.00;99532.16;5137945;27;20229;-32
2020/12/09 04:10:10;;;;;;;114.63;40.97;;;;;;;2.73;100.00;99534.09;5138580;27;20282;-31
2020/12/09 04:12:56;;;;;;;155.37;45.60;;;;;;;2.85;100.00;99535.03;5138317;27;20201;-32
2020/12/09 04:15:41;;;;;;;152.97;42.23;;;;;;;2.88;100.00;99538.47;5138102;27;20484;-31
2020/12/09 04:18:28;;;;;;;169.27;47.60;;;;;;;2.75;100.00;99544.31;5138415;27;20653;-32
2020/12/09 04:21:13;;;;;;;174.77;47.03;;;;;;;2.80;100.00;99537.53;5138463;27;20193;-31
2020/12/09 04:23:59;;;;;;;117.93;43.33;;;;;;;2.92;100.00;99537.69;5138259;28;20298;-33
2020/12/09 04:26:44;;;;;;;160.17;46.20;;;;;;;3.00;100.00;99537.72;5138587;28;20197;-35
2020/12/09 04:29:31;;;;;;;144.23;45.97;;;;;;;3.07;100.00;99542.94;5138423;28;20594;-33
2020/12/09 04:32:16;;;;;;;235.40;49.23;;;;;;;2.85;100.00;99546.09;5137907;28;20205;-31
2020/12/09 04:35:04;;;;;;;135.60;44.00;;;;;;;2.93;100.00;99554.72;5138003;28;20282;-32
2020/12/09 04:37:55;;;;;;;115.80;44.40;;;;;;;2.94;100.00;99553.88;5138121;28;20201;-31
2020/12/09 04:40:40;;;;;;;97.30;42.10;;;;;;;2.93;100.00;99548.75;5138025;28;20243;-32
2020/12/09 04:43:26;;;;;;;196.77;52.27;;;;;;;2.87;100.00;99551.22;5137661;28;20243;-34
2020/12/09 04:46:12;;;;;;;146.17;45.73;;;;;;;2.99;100.00;99549.69;5138056;28;20190;-32
2020/12/09 04:48:59;;;;;;;152.13;47.10;;;;;;;3.00;100.00;99548.81;5138393;28;20201;-33
2020/12/09 04:52:20;;;;;;;247.93;55.57;;;;;;;2.87;100.00;99541.03;5137845;28;20201;-32
2020/12/09 04:55:08;;;;;;;182.97;49.33;;;;;;;2.82;100.00;99547.75;5138115;28;20593;-30
2020/12/09 04:58:15;;;;;;;102.57;40.17;;;;;;;2.92;100.00;99545.34;5137625;28;20479;-32
2020/12/09 05:01:05;;;;;;;133.63;40.27;;;;;;;2.67;100.00;99545.91;5136986;28;20286;-30
2020/12/09 05:03:52;;;;;;;161.33;46.83;;;;;;;2.62;100.00;99552.66;5137585;28;20198;-33
2020/12/09 05:06:37;;;;;;;268.77;49.10;;;;;;;2.44;100.00;99548.19;5137566;28;20197;-31
2020/12/09 05:09:27;;;;;;;385.10;59.67;;;;;;;2.40;100.00;99546.44;5137931;28;20278;-35
2020/12/09 05:12:15;;;;;;;144.33;43.67;;;;;;;2.46;100.00;99543.09;5137632;28;20298;-35
2020/12/09 05:15:03;;;;;;;119.97;43.20;;;;;;;2.62;100.00;99552.66;5137782;28;20586;-31
2020/12/09 05:18:02;;;;;;;163.33;43.97;;;;;;;2.81;100.00;99566.47;5137529;28;20350;-34
2020/12/09 05:20:48;;;;;;;427.67;72.10;;;;;;;2.10;100.00;99567.31;5137856;28;20202;-32
2020/12/09 05:23:39;;;;;;;179.43;45.27;;;;;;;2.34;100.00;99569.34;5137586;28;20712;-33
2020/12/09 05:26:28;;;;;;;146.73;46.30;;;;;;;2.43;100.00;99572.84;5137763;28;20193;-33
2020/12/09 05:29:16;;;;;;;149.23;45.33;;;;;;;2.59;100.00;99567.97;5140251;27;20225;-32
2020/12/09 05:32:03;;;;;;;129.80;43.23;;;;;;;2.71;100.00;99579.16;5141221;27;20217;-30
2020/12/09 05:34:48;;;;;;;137.83;43.50;;;;;;;2.85;100.00;99573.34;5141077;27;20209;-32
2020/12/09 05:37:33;;;;;;;121.07;44.73;;;;;;;2.85;100.00;99579.31;5141428;27;20467;-35
2020/12/09 05:40:29;;;;;;;171.30;48.27;;;;;;;2.92;100.00;99580.25;5140753;27;20201;-35
2020/12/09 05:43:16;;;;;;;129.10;46.17;;;;;;;2.59;100.00;99573.94;5141105;27;20446;-30
2020/12/09 05:46:07;;;;;;;122.40;48.90;;;;;;;2.83;100.00;99580.97;5140665;27;20216;-32
2020/12/09 05:48:52;;;;;;;101.53;42.83;;;;;;;2.74;100.00;99580.91;5140847;27;20263;-32
2020/12/09 05:51:39;;;;;;;94.50;38.50;;;;;;;2.89;100.00;99578.50;5140742;27;20472;-32
2020/12/09 05:54:25;;;;;;;87.97;40.07;;;;;;;2.82;100.00;99576.72;5140604;27;20604;-31
2020/12/09 05:57:13;;;;;;;120.73;43.73;;;;;;;2.89;100.00;99583.63;5140214;27;20613;-32
2020/12/09 06:00:00;;;;;;;157.20;45.40;;;;;;;2.54;100.00;99583.22;5140298;27;20189;-32
2020/12/09 06:02:45;;;;;;;282.07;63.03;;;;;;;1.92;100.00;99577.25;5140543;27;20198;-31
2020/12/09 06:05:31;;;;;;;119.83;41.53;;;;;;;2.14;100.00;99579.28;5140379;27;20591;-32
2020/12/09 06:08:39;;;;;;;100.27;41.87;;;;;;;2.65;100.00;99588.44;5140153;27;20303;-34
2020/12/09 06:11:27;;;;;;;85.30;38.23;;;;;;;2.72;100.00;99585.97;5140527;27;20213;-32
2020/12/09 06:14:16;;;;;;;85.27;36.47;;;;;;;2.65;100.00;99589.28;5140101;27;20189;-33
2020/12/09 06:17:03;;;;;;;84.30;39.30;;;;;;;2.80;100.00;99598.00;5139592;27;20228;-31
2020/12/09 06:19:50;;;;;;;86.20;37.33;;;;;;;2.82;100.00;99591.19;5139226;27;20202;-32
2020/12/09 06:22:35;;;;;;;89.00;37.80;;;;;;;2.88;100.00;99592.13;5139865;27;20512;-35
2020/12/09 06:25:21;;;;;;;78.27;36.27;;;;;;;2.88;100.00;99596.38;5139929;27;20202;-35
2020/12/09 06:28:11;;;;;;;101.07;39.13;;;;;;;2.90;100.00;99599.78;5139368;27;20197;-33
2020/12/09 06:31:09;;;;;;;86.53;40.03;;;;;;;2.80;100.00;99598.81;5139991;27;20202;-33
2020/12/09 06:33:57;;;;;;;108.60;42.23;;;;;;;2.47;100.00;99600.97;5139888;27;20193;-32
2020/12/09 06:36:43;;;;;;;96.93;38.10;;;;;;;2.65;100.00;99609.72;5139652;27;20527;-32
2020/12/09 06:39:29;;;;;;;118.10;39.13;;;;;;;2.10;100.00;99618.34;5139181;27;20193;-35
2020/12/09 06:42:15;;;;;;;89.10;40.53;;;;;;;2.08;100.00;99618.31;5139044;27;20237;-34
2020/12/09 06:45:02;;;;;;;88.17;39.03;;;;;;;2.53;100.00;99624.88;5138454;27;20459;-32
2020/12/09 06:48:09;;;;;;;78.57;40.13;;;;;;;2.56;100.00;99626.63;5138954;27;20290;-33
2020/12/09 06:50:55;;;;;;;91.93;45.90;;;;;;;2.77;100.00;99626.91;5138858;27;20591;-33
2020/12/09 06:53:41;;;;;;;85.23;39.47;;;;;;;2.77;100.00;99629.44;5138770;27;20515;-33
2020/12/09 06:56:26;;;;;;;94.10;39.87;;;;;;;2.59;100.00;99624.97;5138032;27;20494;-33
2020/12/09 06:59:27;;;;;;;75.97;37.33;;;;;;;2.78;100.00;99633.72;5139015;27;20193;-34
2020/12/09 07:02:24;;;;;;;86.87;38.43;;;;;;;2.68;100.00;99636.97;5138039;27;20471;-31
2020/12/09 07:05:12;;;;;;;99.57;37.13;;;;;;;2.12;100.00;99643.88;5139017;27;20251;-34
2020/12/09 07:08:04;;;;;;;85.73;38.53;;;;;;;2.40;100.00;99645.97;5138579;27;20233;-33
2020/12/09 07:10:50;;;;;;;95.97;43.93;;;;;;;2.58;100.00;99642.81;5138469;27;20297;-34
2020/12/09 07:13:36;;;;;;;93.43;50.53;;;;;;;2.66;100.00;99647.16;5138193;27;20441;-32
2020/12/09 07:16:28;;;;;;;90.73;46.20;;;;;;;2.99;100.00;99651.00;5138743;27;20236;-31
2020/12/09 07:19:14;;;;;;;120.70;56.93;;;;;;;3.02;100.00;99644.19;5137993;27;20202;-31
2020/12/09 07:22:02;;;;;;;214.00;69.63;;;;;;;2.63;100.00;99638.59;5138244;27;20198;-32
2020/12/09 07:24:49;;;;;;;145.47;48.33;;;;;;;2.58;100.00;99648.78;5123713;27;20505;-32
2020/12/09 07:27:37;;;;;;;131.07;43.87;;;;;;;2.41;100.00;99645.97;5596207;22;20249;-29
2020/12/09 07:30:23;;;;;;;83.33;31.63;;;;;;;1.89;100.00;99648.59;5119906;28;20210;-29
2020/12/09 07:33:09;;;;;;;87.37;36.43;;;;;;;2.20;100.00;99648.22;5118937;28;20218;-28
2020/12/09 07:36:01;;;;;;;85.77;39.30;;;;;;;2.69;100.00;99636.16;5118244;28;20704;-29
2020/12/09 07:38:46;;;;;;;143.63;52.53;;;;;;;2.58;100.00;99645.38;5119018;28;20434;-29
2020/12/09 07:41:44;;;;;;;133.77;45.03;;;;;;;2.33;100.00;99652.69;5119192;28;20385;-28
2020/12/09 07:44:30;;;;;;;143.77;42.40;;;;;;;2.61;100.00;99653.91;5120024;28;20210;-28
2020/12/09 07:47:22;;;;;;;102.70;40.27;;;;;;;2.68;100.00;99655.72;5120484;28;20264;-28
2020/12/09 07:50:11;;;;;;;99.07;39.40;;;;;;;2.33;100.00;99657.78;5120477;28;20252;-28
2020/12/09 07:52:56;;;;;;;139.30;37.73;;;;;;;2.53;100.00;99655.53;5120070;28;20616;-28
2020/12/09 07:55:43;;;;;;;110.33;39.37;;;;;;;2.70;100.00;99650.63;5119478;28;20241;-27
2020/12/09 07:58:29;;;;;;;147.80;40.87;;;;;;;2.65;100.00;99642.03;5119660;28;20669;-28
2020/12/09 08:01:26;;;;;;;112.03;39.17;;;;;;;2.52;100.00;99645.28;5121586;28;20470;-28
2020/12/09 08:04:12;;;;;;;83.27;37.63;;;;;;;2.53;100.00;99649.56;5119209;28;20189;-28
2020/12/09 08:07:19;;;;;;;141.47;42.73;;;;;;;2.30;100.00;99647.53;5119732;28;20198;-28
2020/12/09 08:10:08;;;;;;;180.53;48.00;;;;;;;2.01;100.00;99653.88;5120090;28;20546;-28
2020/12/09 08:13:06;;;;;;;99.63;37.23;;;;;;;1.72;100.00;99645.78;5121227;28;20194;-28
2020/12/09 08:16:01;;;;;;;158.87;42.80;;;;;;;1.98;100.00;99647.06;5120309;28;20225;-28
2020/12/09 08:18:47;;;;;;;134.67;44.50;;;;;;;1.86;100.00;99643.44;5120007;28;20198;-28
2020/12/09 08:21:34;;;;;;;300.87;57.57;;;;;;;1.38;100.00;99639.28;5118315;28;20202;-28
2020/12/09 08:24:19;;;;;;;135.90;39.33;;;;;;;1.31;100.00;99642.53;5120494;28;20244;-27
2020/12/09 08:27:19;;;;;;;250.03;52.50;;;;;;;1.62;100.00;99654.09;5119549;28;20193;-28
2020/12/09 08:30:08;;;;;;;165.83;40.97;;;;;;;1.06;100.00;99666.66;5120028;28;20356;-28
2020/12/09 08:33:13;;;;;;;157.70;42.90;;;;;;;1.16;100.00;99663.47;5119839;28;20311;-28
2020/12/09 08:36:01;;;;;;;153.50;44.30;;;;;;;1.64;100.00;99680.47;5119683;28;20973;-28
2020/12/09 08:38:48;;;;;;;128.10;42.63;;;;;;;1.96;100.00;99678.47;5120009;28;20440;-28
2020/12/09 08:41:38;;;;;;;161.00;40.93;;;;;;;1.80;100.00;99681.63;5119093;28;20198;-28
2020/12/09 08:44:24;;;;;;;171.10;39.47;;;;;;;1.32;100.00;99677.38;5120626;28;20201;-28
2020/12/09 08:47:19;;;;;;;99.03;38.23;;;;;;;1.57;100.00;99682.06;5122472;28;20210;-28
2020/12/09 08:50:12;;;;;;;108.40;36.67;;;;;;;1.67;100.00;99676.28;5121017;28;20472;-28
2020/12/09 08:52:59;;;;;;;97.73;31.97;;;;;;;1.67;100.00;99673.75;5119421;28;20248;-35
2020/12/09 08:55:45;;;;;;;104.40;32.70;;;;;;;1.67;100.00;99672.88;5119147;28;20527;-28
2020/12/09 08:58:30;;;;;;;81.43;33.47;;;;;;;1.11;100.00;99665.06;5118839;28;20259;-28
2020/12/09 09:01:16;;;;;;;73.53;31.57;;;;;;;1.23;100.00;99672.94;5118616;28;20340;-27
2020/12/09 09:04:06;;;;;;;89.67;32.30;;;;;;;1.31;100.00;99665.44;5121125;28;20288;-31
2020/12/09 09:06:53;;;;;;;136.03;40.60;;;;;;;1.65;100.00;99670.31;5123302;28;20199;-28
2020/12/09 09:09:42;;;;;;;62.23;26.07;;;;;;;1.09;100.00;99673.50;5123981;28;20197;-27
2020/12/09 09:12:29;;;;;;;85.47;28.30;;;;;;;1.34;100.00;99675.69;5125257;28;20240;-28
2020/12/09 09:15:14;;;;;;;120.33;29.93;;;;;;;1.48;100.00;99684.44;5123172;28;20211;-27
2020/12/09 09:18:00;;;;;;;70.40;29.27;;;;;;;1.64;100.00;99694.06;5122120;28;20315;-28
2020/12/09 09:20:47;;;;;;;87.07;33.90;;;;;;;2.43;100.00;99694.50;5123833;28;20202;-28
2020/12/09 09:23:34;;;;;;;116.30;34.60;;;;;;;2.39;100.00;99702.97;5122799;28;20194;-28
2020/12/09 09:26:32;;;;;;;75.97;27.90;;;;;;;1.54;100.00;99710.06;5122214;28;20193;-28
2020/12/09 09:29:18;;;;;;;134.53;27.57;;;;;;;1.13;100.00;99723.69;5123143;28;20230;-28
2020/12/09 09:32:04;;;;;;;117.77;28.90;;;;;;;1.05;100.00;99726.06;5123006;28;20202;-28
2020/12/09 09:34:50;;;;;;;63.57;25.20;;;;;;;1.32;100.00;99718.13;5122806;28;20191;-28
2020/12/09 09:37:36;;;;;;;159.63;30.83;;;;;;;0.90;100.00;99711.34;5122868;28;20234;-28
2020/12/09 09:40:22;;;;;;;84.73;30.80;;;;;;;1.66;100.00;99712.81;5122096;28;20202;-28
2020/12/09 09:43:13;;;;;;;177.20;35.83;;;;;;;2.02;100.00;99712.56;5123113;28;20535;-28
2020/12/09 09:46:00;;;;;;;181.07;37.03;;;;;;;1.80;100.00;99725.78;5128526;28;20202;-28
2020/12/09 09:48:45;;;;;;;139.33;32.97;;;;;;;2.31;100.00;99720.69;5123334;28;20202;-28
2020/12/09 09:51:34;;;;;;;70.40;27.80;;;;;;;2.31;100.00;99710.50;5124181;28;20190;-29
2020/12/09 09:54:19;;;;;;;178.53;35.23;;;;;;;2.14;100.00;99709.38;5123172;28;20307;-28
2020/12/09 09:57:05;;;;;;;121.57;32.33;;;;;;;1.98;100.00;99722.72;5121593;28;20485;-29
2020/12/09 09:59:53;;;;;;;166.00;33.07;;;;;;;0.93;100.00;99736.00;5121754;28;20333;-28
2020/12/09 10:02:40;;;;;;;330.20;50.60;;;;;;;1.31;100.00;99744.41;5121432;28;20194;-28
2020/12/09 10:05:26;;;;;;;103.00;29.83;;;;;;;1.13;100.00;99742.38;5123214;28;20217;-29
2020/12/09 10:08:12;;;;;;;114.30;29.07;;;;;;;1.32;100.00;99738.50;5123263;28;20586;-28
2020/12/09 10:11:01;;;;;;;133.47;36.67;;;;;;;1.17;100.00;99739.06;5122959;28;20197;-28
2020/12/09 10:13:47;;;;;;;97.50;28.83;;;;;;;1.32;100.00;99734.25;5122684;28;20201;-29
2020/12/09 10:16:35;;;;;;;198.10;36.47;;;;;;;1.16;100.00;99731.38;5127571;28;20288;-28
2020/12/09 10:19:21;;;;;;;109.30;32.13;;;;;;;1.04;100.00;99726.88;5122412;28;20191;-28
2020/12/09 10:22:11;;;;;;;94.03;30.87;;;;;;;1.16;100.00;99728.84;5121224;28;20207;-28
2020/12/09 10:24:57;;;;;;;139.37;34.80;;;;;;;1.31;100.00;99734.22;5122815;28;20284;-27
2020/12/09 10:27:46;;;;;;;116.87;35.40;;;;;;;1.29;100.00;99736.75;5120822;28;20488;-29
2020/12/09 10:30:32;;;;;;;112.47;34.23;;;;;;;1.38;100.00;99738.63;5122204;28;20194;-29
2020/12/09 10:33:17;;;;;;;93.33;33.10;;;;;;;1.28;100.00;99740.13;5121339;28;20198;-29
2020/12/09 10:36:04;;;;;;;153.10;36.50;;;;;;;1.13;100.00;99733.88;5120966;28;20195;-29
2020/12/09 10:38:51;;;;;;;278.77;45.87;;;;;;;1.02;100.00;99737.03;5121034;28;20198;-29
2020/12/09 10:41:40;;;;;;;102.57;33.37;;;;;;;1.70;100.00;99729.88;5121559;28;20198;-30
2020/12/09 10:44:25;;;;;;;140.33;42.00;;;;;;;2.02;100.00;99732.13;5121413;28;20249;-28
2020/12/09 10:47:12;;;;;;;91.73;36.33;;;;;;;2.05;100.00;99739.81;5120417;28;20276;-30
2020/12/09 10:49:59;;;;;;;166.60;39.20;;;;;;;1.93;100.00;99737.06;5121570;28;20194;-30
2020/12/09 10:52:45;;;;;;;157.70;42.17;;;;;;;2.24;100.00;99733.31;5118618;28;20268;-31
2020/12/09 10:55:35;;;;;;;229.20;47.07;;;;;;;2.37;100.00;99723.34;5119436;28;20329;-29
2020/12/09 10:58:21;;;;;;;189.63;41.80;;;;;;;2.38;100.00;99724.22;5119421;28;20276;-29
2020/12/09 11:01:07;;;;;;;217.33;40.77;;;;;;;2.51;100.00;99722.69;5119991;28;20202;-30
2020/12/09 11:03:53;;;;;;;121.33;35.77;;;;;;;2.46;100.00;99721.75;5118969;28;20501;-27
2020/12/09 11:06:44;;;;;;;158.13;38.60;;;;;;;2.82;100.00;99717.16;5119082;28;20210;-30
2020/12/09 11:09:31;;;;;;;169.63;38.07;;;;;;;2.71;100.00;99716.19;5118434;28;20198;-29
2020/12/09 11:12:18;;;;;;;118.40;33.17;;;;;;;2.65;100.00;99716.94;5116763;28;20209;-30
2020/12/09 11:15:04;;;;;;;506.83;89.97;;;;;;;2.61;100.00;99719.41;5118463;28;20202;-29
2020/12/09 11:17:50;;;;;;;283.53;49.80;;;;;;;2.81;100.00;99719.69;5117522;28;20222;-27
2020/12/09 11:20:38;;;;;;;113.37;39.17;;;;;;;2.90;100.00;99714.72;5117966;28;20355;-28
2020/12/09 11:23:24;;;;;;;101.93;35.97;;;;;;;2.73;100.00;99717.91;5118296;28;20194;-27
2020/12/09 11:26:09;;;;;;;115.70;37.63;;;;;;;2.95;100.00;99716.50;5117471;28;20198;-28
2020/12/09 11:28:58;;;;;;;142.83;40.57;;;;;;;3.07;100.00;99706.44;5117095;28;20233;-27
2020/12/09 11:31:46;;;;;;;186.00;43.20;;;;;;;3.11;100.00;99708.19;5118211;28;20482;-29
2020/12/09 11:34:33;;;;;;;259.37;52.37;;;;;;;2.83;100.00;99713.78;5118087;28;20202;-29
2020/12/09 11:37:19;;;;;;;98.43;34.87;;;;;;;3.39;100.00;99705.97;5117462;28;20221;-29
2020/12/09 11:40:05;;;;;;;114.83;36.63;;;;;;;3.14;100.00;99703.97;5118124;28;20199;-29
2020/12/09 11:42:52;;;;;;;78.63;33.93;;;;;;;3.41;100.00;99704.25;5117895;28;20190;-29
2020/12/09 11:45:38;;;;;;;97.60;32.57;;;;;;;2.78;100.00;99702.66;5117164;28;20198;-29
2020/12/09 11:48:24;;;;;;;82.10;32.63;;;;;;;2.01;100.00;99703.19;5117776;28;20206;-29
2020/12/09 11:51:13;;;;;;;83.13;33.77;;;;;;;2.15;100.00;99708.53;5118517;28;20198;-29
2020/12/09 11:54:00;;;;;;;79.67;34.67;;;;;;;2.82;100.00;99713.75;5117816;28;20659;-29
2020/12/09 11:56:49;;;;;;;80.67;34.40;;;;;;;2.27;100.00;99711.28;5118165;28;20226;-28
2020/12/09 11:59:35;;;;;;;156.17;45.10;;;;;;;2.54;100.00;99703.19;5118647;28;20634;-28
2020/12/09 12:02:21;;;;;;;81.00;36.53;;;;;;;2.66;100.00;99708.44;5117518;28;20197;-28
2020/12/09 12:05:08;;;;;;;89.30;34.87;;;;;;;2.20;100.00;99706.06;5117569;28;20194;-28
2020/12/09 12:07:54;;;;;;;137.40;41.77;;;;;;;2.41;100.00;99702.13;5117492;28;20206;-28
2020/12/09 12:10:40;;;;;;;124.93;42.97;;;;;;;3.14;100.00;99702.25;5117961;28;20195;-29
2020/12/09 12:13:27;;;;;;;105.23;45.70;;;;;;;3.41;100.00;99705.09;5117220;28;20219;-29
2020/12/09 12:16:19;;;;;;;150.80;46.00;;;;;;;3.47;100.00;99704.31;5116918;28;20198;-29
2020/12/09 12:19:09;;;;;;;121.53;48.27;;;;;;;3.18;100.00;99704.03;5117325;28;20627;-29
2020/12/09 12:21:55;;;;;;;126.63;45.77;;;;;;;2.96;100.00;99708.00;5116471;28;20220;-29
2020/12/09 12:24:42;;;;;;;141.57;48.40;;;;;;;2.95;100.00;99706.28;5116400;28;20199;-29
2020/12/09 12:27:32;;;;;;;130.13;45.77;;;;;;;3.21;100.00;99708.28;5116361;28;20241;-29
2020/12/09 12:30:20;;;;;;;172.37;50.70;;;;;;;2.66;100.00;99711.00;5117127;28;20343;-27
2020/12/09 12:33:13;;;;;;;154.80;55.07;;;;;;;2.58;100.00;99714.31;5116403;28;20198;-27
2020/12/09 12:36:02;;;;;;;121.60;48.00;;;;;;;2.89;100.00;99710.44;5116673;28;20244;-27
2020/12/09 12:38:52;;;;;;;120.53;47.53;;;;;;;3.36;100.00;99705.94;5121320;28;20484;-29
2020/12/09 12:41:42;;;;;;;121.00;48.07;;;;;;;3.62;100.00;99699.38;5121108;28;20218;-28
2020/12/09 12:44:30;;;;;;;107.40;45.97;;;;;;;3.77;100.00;99696.97;5121714;28;20198;-28
2020/12/09 12:47:25;;;;;;;151.40;48.13;;;;;;;3.56;100.00;99698.47;5120413;28;20248;-28